Time;durP1;ratioP1;P1;durP2;ratioP2;P2;SDS_P1;SDS_P2;PMS_P1;PMS_P2;Temp;Humidity;BMP_temperature;BMP_pressure;BME280_temperature;BME280_humidity;BME280_pressure;Samples;Min_cycle;Max_cycle;Signal;HPM_P1;HPM_P2
2023/10/30 00:02:18;;;;;;;6.78;3.63;;;;;;;3.16;74.13;99417.41;5034655;28;20075;-39
2023/10/30 00:04:44;;;;;;;6.07;3.38;;;;;;;2.96;73.84;99417.56;5047677;28;20073;-39
2023/10/30 00:07:10;;;;;;;9.23;3.78;;;;;;;2.85;74.23;99411.66;5048658;28;20046;-39
2023/10/30 00:09:36;;;;;;;8.25;4.20;;;;;;;2.92;74.22;99421.88;5035739;28;20080;-37
2023/10/30 00:12:02;;;;;;;9.07;4.05;;;;;;;2.85;74.19;99422.78;5046484;28;20041;-38
2023/10/30 00:14:28;;;;;;;8.43;4.05;;;;;;;2.84;74.29;99431.34;5034136;28;20083;-39
2023/10/30 00:16:54;;;;;;;7.88;4.45;;;;;;;2.90;74.14;99436.44;5033812;28;20045;-37
2023/10/30 00:19:20;;;;;;;6.78;3.78;;;;;;;2.97;73.94;99416.72;5031908;28;20052;-38
2023/10/30 00:21:46;;;;;;;9.00;4.55;;;;;;;3.09;74.09;99415.75;5031933;28;20047;-38
2023/10/30 00:24:12;;;;;;;8.50;3.95;;;;;;;3.17;74.05;99412.25;5046900;28;21865;-37
2023/10/30 00:26:38;;;;;;;7.60;4.07;;;;;;;3.13;74.00;99408.00;5034118;28;20049;-39
2023/10/30 00:29:04;;;;;;;10.55;4.70;;;;;;;3.14;74.31;99411.44;5039839;28;20049;-38
2023/10/30 00:31:30;;;;;;;4.72;3.03;;;;;;;3.07;74.11;99420.91;5030405;28;20575;-38
2023/10/30 00:33:56;;;;;;;5.97;3.35;;;;;;;2.90;74.05;99412.47;5033881;28;20125;-38
2023/10/30 00:36:21;;;;;;;6.05;3.33;;;;;;;2.88;74.30;99403.94;5032925;28;20132;-38
2023/10/30 00:38:48;;;;;;;7.90;4.18;;;;;;;2.76;74.10;99415.16;5044376;28;20483;-38
2023/10/30 00:41:14;;;;;;;8.27;4.50;;;;;;;2.79;73.91;99424.53;5040764;28;20041;-37
2023/10/30 00:43:40;;;;;;;8.32;4.50;;;;;;;2.80;73.89;99411.69;5029831;28;20049;-37
2023/10/30 00:46:07;;;;;;;7.15;3.95;;;;;;;2.84;74.17;99400.53;5043023;28;20041;-37
2023/10/30 00:48:33;;;;;;;9.05;4.35;;;;;;;2.92;73.83;99398.78;5030826;28;20055;-38
2023/10/30 00:50:59;;;;;;;7.47;3.90;;;;;;;2.87;73.77;99408.22;5033651;28;20099;-38
2023/10/30 00:53:25;;;;;;;8.25;3.67;;;;;;;2.93;74.38;99402.19;5036980;28;20140;-38
2023/10/30 00:55:52;;;;;;;10.00;4.88;;;;;;;3.02;74.34;99402.13;5036324;28;20056;-38
2023/10/30 00:58:18;;;;;;;14.25;4.25;;;;;;;2.83;74.19;99365.47;5034132;28;20037;-38
2023/10/30 01:00:44;;;;;;;5.93;3.40;;;;;;;2.98;74.40;99377.34;5049175;28;20115;-38
2023/10/30 01:03:10;;;;;;;7.53;3.78;;;;;;;2.99;74.41;99395.28;5049266;28;20049;-38
2023/10/30 01:05:36;;;;;;;7.32;3.95;;;;;;;2.83;74.56;99392.84;5030517;28;20044;-38
2023/10/30 01:08:08;;;;;;;7.20;2.85;;;;;;;2.64;74.85;99387.00;5042066;28;20049;-37
2023/10/30 01:10:35;;;;;;;6.60;3.50;;;;;;;2.49;75.58;99382.00;5035244;28;20132;-38
2023/10/30 01:13:02;;;;;;;7.82;3.90;;;;;;;2.21;75.71;99358.22;5015497;28;20137;-40
2023/10/30 01:15:28;;;;;;;8.73;4.40;;;;;;;2.14;75.98;99366.84;5033833;28;20124;-38
2023/10/30 01:17:54;;;;;;;9.32;4.07;;;;;;;2.35;75.87;99394.06;5048292;28;20132;-37
2023/10/30 01:20:20;;;;;;;6.35;3.58;;;;;;;2.24;76.25;99395.84;5029136;28;20100;-37
2023/10/30 01:22:46;;;;;;;5.63;2.80;;;;;;;2.18;76.51;99386.47;5033320;28;20102;-37
2023/10/30 01:25:12;;;;;;;9.20;4.07;;;;;;;1.97;76.64;99343.00;5040185;28;20053;-37
2023/10/30 01:27:38;;;;;;;6.35;3.28;;;;;;;2.08;77.30;99359.16;5048088;28;20438;-37
2023/10/30 01:30:05;;;;;;;8.02;3.17;;;;;;;2.09;77.04;99350.63;5032943;28;20056;-39
2023/10/30 01:32:31;;;;;;;9.95;4.35;;;;;;;2.07;77.07;99347.19;5029832;28;20037;-38
2023/10/30 01:34:57;;;;;;;11.25;4.28;;;;;;;2.09;77.38;99354.00;5033795;28;20129;-41
2023/10/30 01:37:23;;;;;;;7.70;3.53;;;;;;;2.13;77.47;99342.03;5029044;28;20033;-37
2023/10/30 01:39:49;;;;;;;10.73;3.70;;;;;;;2.11;77.42;99347.16;5033084;28;20044;-38
2023/10/30 01:42:16;;;;;;;8.48;4.05;;;;;;;2.00;77.54;99328.44;5032667;28;20071;-38
2023/10/30 01:44:56;;;;;;;6.43;3.78;;;;;;;2.24;77.55;99375.31;5031594;28;20044;-37
2023/10/30 01:47:26;;;;;;;6.25;3.55;;;;;;;2.21;77.22;99377.88;5033205;28;20167;-37
2023/10/30 01:49:52;;;;;;;5.45;3.10;;;;;;;2.34;76.84;99411.16;5031837;28;20037;-37
2023/10/30 01:52:19;;;;;;;6.47;3.10;;;;;;;2.38;76.75;99415.41;5029066;28;20421;-38
2023/10/30 01:54:46;;;;;;;8.57;3.05;;;;;;;2.09;76.24;99350.63;5031818;28;20041;-37
2023/10/30 01:57:15;;;;;;;6.63;3.08;;;;;;;2.26;76.33;99369.31;5048033;28;20571;-38
2023/10/30 01:59:41;;;;;;;4.68;2.70;;;;;;;2.25;76.65;99367.59;5038373;28;20045;-39
2023/10/30 02:02:10;;;;;;;5.53;3.05;;;;;;;2.23;77.13;99384.72;5032377;28;20040;-38
2023/10/30 02:04:36;;;;;;;4.97;2.80;;;;;;;2.22;77.35;99359.06;5032639;28;20162;-39
2023/10/30 02:07:03;;;;;;;5.45;3.20;;;;;;;2.18;77.49;99327.47;5044943;28;20041;-38
2023/10/30 02:09:30;;;;;;;10.25;4.93;;;;;;;2.23;77.45;99320.59;5035744;28;20045;-39
2023/10/30 02:11:57;;;;;;;7.85;3.65;;;;;;;2.36;77.31;99331.63;5032225;28;20041;-38
2023/10/30 02:14:24;;;;;;;7.10;3.20;;;;;;;2.35;77.06;99320.53;5037632;28;20041;-38
2023/10/30 02:16:51;;;;;;;7.63;3.20;;;;;;;2.36;76.79;99322.22;5031646;28;20036;-37
2023/10/30 02:19:22;;;;;;;8.07;3.70;;;;;;;2.37;76.64;99330.75;5029051;28;20472;-38
2023/10/30 02:21:50;;;;;;;7.50;3.00;;;;;;;2.31;76.52;99353.88;5031309;28;20512;-37
2023/10/30 02:24:15;;;;;;;7.10;3.58;;;;;;;1.96;76.60;99349.81;5055835;28;20077;-38
2023/10/30 02:26:41;;;;;;;7.18;3.20;;;;;;;2.12;76.50;99384.78;5047356;28;20412;-38
2023/10/30 02:29:07;;;;;;;7.45;3.85;;;;;;;2.08;76.58;99387.38;5031975;28;20041;-38
2023/10/30 02:31:33;;;;;;;8.48;3.83;;;;;;;2.15;76.72;99388.19;5048515;28;20406;-39
2023/10/30 02:34:00;;;;;;;8.68;3.88;;;;;;;2.28;76.48;99357.34;5047547;28;20069;-39
2023/10/30 02:36:26;;;;;;;9.40;4.15;;;;;;;2.37;76.26;99371.81;5046744;28;20068;-38
2023/10/30 02:38:52;;;;;;;7.28;3.72;;;;;;;2.42;76.33;99341.84;5031353;28;20064;-37
2023/10/30 02:41:22;;;;;;;8.45;3.90;;;;;;;2.37;76.17;99336.75;5031879;28;20057;-38
2023/10/30 02:43:48;;;;;;;8.55;3.80;;;;;;;2.17;76.02;99305.25;5047646;28;20128;-38
2023/10/30 02:46:13;;;;;;;7.00;3.83;;;;;;;2.60;75.89;99371.66;5047243;28;20136;-38
2023/10/30 02:48:39;;;;;;;6.78;3.97;;;;;;;2.54;75.56;99381.09;5029020;28;20047;-38
2023/10/30 02:51:05;;;;;;;7.63;3.00;;;;;;;2.45;75.40;99375.19;5032305;28;20079;-38
2023/10/30 02:53:31;;;;;;;5.72;3.35;;;;;;;2.41;75.33;99376.03;5026992;28;20593;-38
2023/10/30 02:55:59;;;;;;;6.50;3.35;;;;;;;2.28;74.98;99384.69;5034405;28;20048;-38
2023/10/30 02:58:25;;;;;;;6.35;3.28;;;;;;;2.18;74.86;99376.19;5030912;28;20056;-43
2023/10/30 03:00:54;;;;;;;6.38;3.53;;;;;;;2.09;75.04;99366.00;5047403;28;20037;-38
2023/10/30 03:03:22;;;;;;;7.05;3.33;;;;;;;2.05;75.15;99364.28;5029873;28;20566;-38
2023/10/30 03:05:49;;;;;;;6.75;3.63;;;;;;;2.19;75.26;99375.34;5039711;28;20076;-37
2023/10/30 03:08:14;;;;;;;6.20;3.03;;;;;;;2.17;75.00;99363.38;5046000;28;20051;-38
2023/10/30 03:10:40;;;;;;;8.30;4.38;;;;;;;2.22;75.20;99346.25;5030729;28;20050;-37
2023/10/30 03:13:06;;;;;;;7.32;4.10;;;;;;;2.47;74.98;99352.91;5029779;28;20036;-39
2023/10/30 03:15:32;;;;;;;8.13;4.10;;;;;;;2.42;74.89;99319.59;5030484;28;20793;-41
2023/10/30 03:17:59;;;;;;;9.07;4.00;;;;;;;2.73;74.41;99388.66;5027366;28;20049;-38
2023/10/30 03:20:25;;;;;;;6.45;3.95;;;;;;;2.77;74.22;99387.78;5026699;28;20570;-37
2023/10/30 03:22:52;;;;;;;6.70;3.60;;;;;;;2.72;73.76;99389.53;5031682;28;20419;-39
2023/10/30 03:25:18;;;;;;;5.90;3.80;;;;;;;2.64;74.05;99399.84;5032363;28;20140;-37
2023/10/30 03:27:46;;;;;;;7.82;3.25;;;;;;;2.61;73.89;99415.28;5045856;28;20494;-38
2023/10/30 03:30:12;;;;;;;6.45;3.38;;;;;;;2.49;73.79;99415.34;5027122;28;20045;-37
2023/10/30 03:32:38;;;;;;;5.93;3.60;;;;;;;2.25;73.48;99392.41;5041448;28;20045;-38
2023/10/30 03:35:03;;;;;;;6.70;3.58;;;;;;;2.09;73.17;99366.81;5029803;28;20128;-38
2023/10/30 03:37:31;;;;;;;7.90;3.75;;;;;;;2.34;73.29;99393.22;5028598;28;20502;-38
2023/10/30 03:39:57;;;;;;;7.05;3.17;;;;;;;2.51;73.10;99440.13;5030359;28;20060;-37
2023/10/30 03:42:23;;;;;;;4.72;2.42;;;;;;;2.43;72.88;99439.31;5031788;28;20792;-38
2023/10/30 03:44:49;;;;;;;6.10;3.22;;;;;;;2.38;72.75;99433.38;5047080;28;20535;-37
2023/10/30 03:47:16;;;;;;;3.35;1.80;;;;;;;2.46;72.75;99446.97;5046056;28;20446;-38
2023/10/30 03:49:42;;;;;;;6.40;2.65;;;;;;;2.31;72.38;99434.25;5040722;28;20504;-38
2023/10/30 03:52:08;;;;;;;4.70;2.33;;;;;;;2.37;72.06;99430.81;5031751;28;20041;-37
2023/10/30 03:54:34;;;;;;;6.32;2.85;;;;;;;2.28;71.62;99411.19;5031312;28;20045;-38
2023/10/30 03:57:00;;;;;;;7.30;4.00;;;;;;;2.27;71.81;99401.78;5034986;28;20103;-38
2023/10/30 03:59:26;;;;;;;4.65;2.45;;;;;;;2.29;71.64;99394.09;5030132;28;20513;-38
2023/10/30 04:01:52;;;;;;;4.63;2.40;;;;;;;2.37;71.61;99376.94;5034578;28;20045;-39
2023/10/30 04:04:18;;;;;;;4.72;2.60;;;;;;;2.28;70.76;99369.31;5035648;28;20099;-38
2023/10/30 04:06:44;;;;;;;3.35;2.13;;;;;;;2.28;71.20;99343.66;5034803;28;20045;-38
2023/10/30 04:09:10;;;;;;;5.30;2.60;;;;;;;2.27;70.95;99327.41;5035202;28;20041;-38
2023/10/30 04:11:36;;;;;;;6.68;3.03;;;;;;;2.28;71.21;99316.28;5034305;28;20063;-39
2023/10/30 04:14:02;;;;;;;5.85;3.40;;;;;;;2.29;71.48;99317.16;5035060;28;20041;-37
2023/10/30 04:16:28;;;;;;;4.78;2.80;;;;;;;2.34;71.66;99306.00;5034432;28;20037;-39
2023/10/30 04:18:54;;;;;;;5.25;2.97;;;;;;;2.30;71.83;99306.03;5031741;28;20048;-39
2023/10/30 04:21:20;;;;;;;6.38;3.13;;;;;;;2.22;72.29;99305.22;5050029;28;20076;-39
2023/10/30 04:23:47;;;;;;;5.80;2.78;;;;;;;2.16;72.71;99303.56;5032448;28;20504;-39
2023/10/30 04:26:13;;;;;;;6.45;2.85;;;;;;;2.06;73.65;99289.09;5034170;28;20103;-38
2023/10/30 04:28:39;;;;;;;4.80;2.60;;;;;;;2.00;73.70;99284.00;5034459;28;20183;-37
2023/10/30 04:31:06;;;;;;;5.78;2.60;;;;;;;1.94;73.95;99281.47;5033842;28;20460;-37
2023/10/30 04:33:32;;;;;;;6.05;2.78;;;;;;;1.92;74.45;99272.97;5049705;28;20589;-38
2023/10/30 04:36:02;;;;;;;7.30;2.72;;;;;;;1.86;74.94;99273.00;5034608;28;20053;-39
2023/10/30 04:38:32;;;;;;;6.45;2.90;;;;;;;1.85;75.25;99259.31;5031081;28;20065;-38
2023/10/30 04:41:02;;;;;;;6.53;2.78;;;;;;;1.81;75.96;99265.34;5033820;28;20041;-38
2023/10/30 04:43:28;;;;;;;8.77;3.00;;;;;;;1.81;76.37;99267.03;5047825;28;20038;-38
2023/10/30 04:45:53;;;;;;;6.68;3.45;;;;;;;1.78;76.62;99267.91;5032535;28;20052;-37
2023/10/30 04:48:19;;;;;;;4.35;2.28;;;;;;;1.77;77.11;99283.31;5032002;28;20424;-38
2023/10/30 04:50:45;;;;;;;5.53;3.08;;;;;;;1.59;77.40;99263.75;5034333;28;20045;-37
2023/10/30 04:53:11;;;;;;;6.90;2.45;;;;;;;1.81;77.45;99293.53;5048795;28;20073;-37
2023/10/30 04:55:37;;;;;;;6.38;3.10;;;;;;;1.77;77.71;99289.28;5033449;28;20068;-39
2023/10/30 04:58:02;;;;;;;4.55;2.80;;;;;;;1.74;77.90;99296.13;5036090;28;20104;-38
2023/10/30 05:00:28;;;;;;;7.18;3.47;;;;;;;1.72;78.20;99290.16;5032350;28;20040;-38
2023/10/30 05:02:54;;;;;;;8.73;3.47;;;;;;;1.58;78.45;99254.34;5048995;28;20131;-38
2023/10/30 05:05:20;;;;;;;6.68;3.42;;;;;;;1.61;78.70;99267.16;5027587;28;20575;-38
2023/10/30 05:07:46;;;;;;;5.07;2.80;;;;;;;1.68;78.67;99286.75;5041921;28;20045;-38
2023/10/30 05:10:12;;;;;;;6.18;3.25;;;;;;;1.50;79.32;99256.13;5034347;28;20045;-38
2023/10/30 05:12:38;;;;;;;3.25;1.90;;;;;;;1.64;79.99;99295.31;5032952;28;20099;-38
2023/10/30 05:15:05;;;;;;;8.85;3.30;;;;;;;1.57;80.20;99281.66;5033688;28;20037;-46
2023/10/30 05:17:31;;;;;;;7.22;3.08;;;;;;;1.51;80.40;99271.47;5033604;28;20033;-38
2023/10/30 05:19:57;;;;;;;6.13;3.20;;;;;;;1.49;80.89;99265.50;5043971;28;20079;-37
2023/10/30 05:22:24;;;;;;;6.05;2.90;;;;;;;1.49;81.42;99260.38;5036908;28;20048;-37
2023/10/30 05:24:50;;;;;;;4.55;2.70;;;;;;;1.38;81.58;99259.56;5033506;28;20041;-38
2023/10/30 05:27:16;;;;;;;5.57;2.58;;;;;;;1.29;82.21;99246.81;5033107;28;20044;-38
2023/10/30 05:29:42;;;;;;;6.03;2.65;;;;;;;1.12;82.71;99218.72;5032338;28;20059;-38
2023/10/30 05:32:08;;;;;;;6.40;3.25;;;;;;;1.24;83.17;99248.53;5032407;28;20041;-39
2023/10/30 05:34:34;;;;;;;7.90;3.10;;;;;;;1.25;83.76;99242.56;5048337;28;20045;-38
2023/10/30 05:37:01;;;;;;;5.72;3.15;;;;;;;1.28;84.52;99237.44;5031201;28;20527;-38
2023/10/30 05:39:28;;;;;;;8.40;3.15;;;;;;;1.33;84.42;99228.00;5054481;28;20077;-38
2023/10/30 05:41:53;;;;;;;6.07;2.72;;;;;;;1.37;84.76;99223.72;5031323;28;20460;-39
2023/10/30 05:44:19;;;;;;;6.65;3.33;;;;;;;1.24;84.86;99192.22;5030400;28;20052;-39
2023/10/30 05:46:45;;;;;;;7.95;3.00;;;;;;;1.39;85.34;99209.22;5032332;28;20055;-38
2023/10/30 05:49:11;;;;;;;7.70;3.38;;;;;;;1.41;85.62;99189.56;5047631;28;20045;-37
2023/10/30 05:51:37;;;;;;;4.20;2.22;;;;;;;1.46;85.71;99192.97;5032710;28;20041;-38
2023/10/30 05:54:04;;;;;;;5.35;3.10;;;;;;;1.21;85.77;99159.78;5032948;28;20063;-38
2023/10/30 05:56:30;;;;;;;6.65;3.20;;;;;;;1.39;85.24;99184.47;5033095;28;20541;-38
2023/10/30 05:58:57;;;;;;;7.85;3.90;;;;;;;1.36;85.27;99186.19;5032298;28;20068;-38
2023/10/30 06:01:23;;;;;;;5.97;2.75;;;;;;;1.36;85.71;99186.19;5032728;28;20517;-39
2023/10/30 06:03:49;;;;;;;3.95;2.60;;;;;;;1.34;85.53;99178.50;5032841;28;20043;-39
2023/10/30 06:06:14;;;;;;;8.05;2.67;;;;;;;1.35;85.17;99169.13;5039782;28;20444;-38
2023/10/30 06:08:40;;;;;;;5.10;2.63;;;;;;;1.36;85.17;99160.59;5043024;28;20033;-38
2023/10/30 06:11:06;;;;;;;7.07;3.03;;;;;;;1.41;85.48;99167.38;5047668;28;20095;-38
2023/10/30 06:13:32;;;;;;;7.93;3.38;;;;;;;1.42;85.18;99158.81;5047671;28;20072;-37
2023/10/30 06:15:58;;;;;;;5.70;3.10;;;;;;;1.41;85.28;99157.13;5033592;28;20315;-38
2023/10/30 06:18:24;;;;;;;6.95;2.90;;;;;;;1.44;85.95;99144.28;5057233;28;20044;-39
2023/10/30 06:20:50;;;;;;;6.75;3.15;;;;;;;1.44;85.64;99146.00;5051824;28;20044;-39
2023/10/30 06:23:16;;;;;;;5.70;3.08;;;;;;;1.08;85.91;99070.28;5029540;28;20033;-38
2023/10/30 06:25:44;;;;;;;6.80;3.40;;;;;;;1.48;86.31;99135.72;5039961;28;20103;-38
2023/10/30 06:28:12;;;;;;;6.97;3.50;;;;;;;1.61;86.43;99122.00;5049163;28;20547;-38
2023/10/30 06:30:38;;;;;;;5.55;2.88;;;;;;;1.65;85.19;99121.09;5053045;28;20052;-38
2023/10/30 06:33:04;;;;;;;5.95;2.70;;;;;;;1.53;85.13;99102.41;5054107;28;20040;-37
2023/10/30 06:35:29;;;;;;;6.88;2.72;;;;;;;1.53;85.19;99108.38;5046488;28;20793;-38
2023/10/30 06:37:55;;;;;;;7.00;3.40;;;;;;;1.58;85.70;99103.22;5051673;28;20091;-39
2023/10/30 06:40:21;;;;;;;7.00;3.45;;;;;;;1.23;85.51;99037.75;5046094;28;20052;-38
2023/10/30 06:42:47;;;;;;;7.07;2.97;;;;;;;1.56;85.14;99103.25;5043967;28;20037;-38
2023/10/30 06:45:12;;;;;;;13.68;3.00;;;;;;;1.54;85.42;99094.72;5056249;28;20508;-38
2023/10/30 06:47:38;;;;;;;5.68;3.05;;;;;;;1.52;86.57;99093.00;5041527;28;20470;-38
2023/10/30 06:50:05;;;;;;;7.88;3.83;;;;;;;1.52;87.07;99093.00;5026879;28;20045;-38
2023/10/30 06:52:31;;;;;;;6.65;3.17;;;;;;;1.51;87.04;99091.31;5052990;28;20144;-38
2023/10/30 06:54:56;;;;;;;8.63;3.45;;;;;;;1.48;87.57;99097.31;5054599;28;20674;-39
2023/10/30 06:57:23;;;;;;;7.90;3.05;;;;;;;1.43;88.04;99073.44;5045428;28;20127;-39
2023/10/30 06:59:52;;;;;;;7.18;3.13;;;;;;;1.40;88.08;99078.59;5052649;28;20535;-40
2023/10/30 07:02:18;;;;;;;5.13;2.75;;;;;;;1.38;88.92;99076.91;5043121;28;20115;-39
2023/10/30 07:04:44;;;;;;;8.32;2.60;;;;;;;1.31;89.66;99063.28;5045390;28;20045;-36
2023/10/30 07:07:10;;;;;;;6.20;3.38;;;;;;;1.26;90.89;99062.47;5031961;28;20041;-38
2023/10/30 07:09:36;;;;;;;10.18;3.05;;;;;;;0.93;91.17;98994.47;5033550;28;20079;-39
2023/10/30 07:12:03;;;;;;;6.88;3.45;;;;;;;1.30;91.92;99038.56;5035622;28;20127;-39
2023/10/30 07:14:29;;;;;;;8.70;3.67;;;;;;;1.27;92.37;99010.41;5050317;28;20509;-40
2023/10/30 07:16:55;;;;;;;7.60;3.60;;;;;;;1.13;92.12;98994.31;5034868;28;20032;-39
2023/10/30 07:19:23;;;;;;;8.32;2.65;;;;;;;1.21;93.09;99011.31;5032358;28;20040;-39
2023/10/30 07:21:49;;;;;;;6.10;2.55;;;;;;;0.73;93.87;98948.53;5049646;28;20052;-37
2023/10/30 07:24:14;;;;;;;4.75;2.55;;;;;;;1.09;94.94;99019.09;5051883;28;20095;-40
2023/10/30 07:26:40;;;;;;;5.85;3.30;;;;;;;1.01;95.60;99007.19;5051110;28;20043;-40
2023/10/30 07:29:07;;;;;;;6.43;3.58;;;;;;;0.75;96.90;98967.28;5055536;28;20103;-39
2023/10/30 07:31:33;;;;;;;8.02;3.25;;;;;;;0.98;97.55;99000.41;5053914;28;20882;-40
2023/10/30 07:33:59;;;;;;;6.03;2.80;;;;;;;0.96;98.54;98997.00;5055963;28;20041;-40
2023/10/30 07:36:26;;;;;;;6.95;2.65;;;;;;;0.88;98.98;98998.78;5052281;28;20546;-40
2023/10/30 07:38:52;;;;;;;5.05;3.08;;;;;;;0.82;99.74;99002.22;5035268;28;20040;-41
2023/10/30 07:41:18;;;;;;;8.48;3.47;;;;;;;0.77;100.00;98992.88;5039904;28;20042;-40
2023/10/30 07:43:44;;;;;;;6.82;2.95;;;;;;;0.81;100.00;99020.97;5035173;28;20041;-41
2023/10/30 07:46:13;;;;;;;7.45;3.50;;;;;;;0.49;100.00;98947.84;5039982;28;20040;-39
2023/10/30 07:48:39;;;;;;;9.23;3.47;;;;;;;0.59;100.00;98975.91;5045635;28;20041;-41
2023/10/30 07:51:05;;;;;;;6.15;3.00;;;;;;;0.61;100.00;98978.47;5053092;28;20107;-38
2023/10/30 07:53:31;;;;;;;7.80;3.47;;;;;;;0.78;100.00;99002.25;5035186;28;20042;-38
2023/10/30 07:55:57;;;;;;;6.22;3.25;;;;;;;0.82;100.00;99004.78;5031517;28;20404;-39
2023/10/30 07:58:23;;;;;;;8.68;3.72;;;;;;;0.93;100.00;99009.81;5047374;28;20123;-40
2023/10/30 08:00:49;;;;;;;7.20;3.22;;;;;;;0.76;100.00;98986.91;5056142;28;20131;-39
2023/10/30 08:03:16;;;;;;;5.18;2.47;;;;;;;0.89;100.00;99000.44;5053589;28;20404;-41
2023/10/30 08:05:42;;;;;;;7.97;2.88;;;;;;;0.96;100.00;99007.22;5054356;28;20056;-40
2023/10/30 08:08:08;;;;;;;7.70;2.80;;;;;;;1.09;100.00;98995.22;5052894;28;20049;-41
2023/10/30 08:10:33;;;;;;;8.27;3.97;;;;;;;1.06;100.00;98990.94;5054615;28;20036;-39
2023/10/30 08:13:00;;;;;;;7.85;3.58;;;;;;;1.04;100.00;98995.25;5050093;28;20049;-40
2023/10/30 08:15:26;;;;;;;8.02;3.90;;;;;;;1.09;100.00;98988.38;5054881;28;20127;-39
2023/10/30 08:17:53;;;;;;;6.40;3.03;;;;;;;1.11;100.00;98984.06;5042445;28;20592;-40
2023/10/30 08:20:19;;;;;;;11.20;3.85;;;;;;;1.08;100.00;98978.16;5053035;28;20134;-39
2023/10/30 08:22:45;;;;;;;6.97;3.28;;;;;;;1.12;100.00;98970.44;5042685;28;20128;-39
2023/10/30 08:25:11;;;;;;;8.10;3.42;;;;;;;1.16;100.00;98966.13;5046935;28;20072;-40
2023/10/30 08:27:36;;;;;;;7.03;3.38;;;;;;;1.17;100.00;98942.22;5043165;28;20076;-40
2023/10/30 08:30:05;;;;;;;5.80;2.65;;;;;;;1.20;100.00;98934.53;5044765;28;20126;-39
2023/10/30 08:32:32;;;;;;;10.35;3.53;;;;;;;1.19;100.00;98927.72;5045450;28;20040;-40
2023/10/30 08:35:02;;;;;;;6.70;3.17;;;;;;;1.22;100.00;98920.00;5045949;28;20189;-38
2023/10/30 08:37:31;;;;;;;6.90;3.13;;;;;;;1.05;100.00;98896.25;5043158;28;20086;-39
2023/10/30 08:39:57;;;;;;;7.32;2.88;;;;;;;1.21;100.00;98924.25;5045093;28;20049;-40
2023/10/30 08:42:22;;;;;;;9.35;3.20;;;;;;;1.26;100.00;98930.19;5043855;28;20051;-40
2023/10/30 08:44:49;;;;;;;5.63;2.80;;;;;;;1.30;100.00;98930.19;5033560;28;20429;-39
2023/10/30 08:47:15;;;;;;;9.68;3.13;;;;;;;1.30;100.00;98927.63;5033656;28;20083;-40
2023/10/30 08:49:40;;;;;;;7.05;3.08;;;;;;;1.08;100.00;98894.53;5033675;28;20036;-40
2023/10/30 08:52:06;;;;;;;9.95;2.90;;;;;;;1.32;100.00;98928.44;5033016;28;20083;-40
2023/10/30 08:54:32;;;;;;;7.47;2.60;;;;;;;1.32;100.00;98916.47;5042364;28;20045;-41
2023/10/30 08:56:58;;;;;;;6.70;2.78;;;;;;;0.97;100.00;98844.31;5032246;28;20578;-40
2023/10/30 08:59:24;;;;;;;6.97;2.42;;;;;;;1.30;100.00;98902.00;5031948;28;20045;-40
2023/10/30 09:01:50;;;;;;;5.38;2.75;;;;;;;1.26;100.00;98886.66;5048786;28;20095;-41
2023/10/30 09:04:16;;;;;;;7.85;3.13;;;;;;;1.33;100.00;98871.25;5042181;28;20049;-40
2023/10/30 09:06:42;;;;;;;7.97;3.45;;;;;;;1.38;100.00;98849.00;5044666;28;20033;-41
2023/10/30 09:09:08;;;;;;;5.13;3.03;;;;;;;1.49;100.00;98862.53;5042241;28;20124;-40
2023/10/30 09:11:34;;;;;;;8.60;3.38;;;;;;;1.44;100.00;98839.53;5039991;28;20045;-41
2023/10/30 09:14:00;;;;;;;9.20;3.25;;;;;;;1.50;100.00;98831.78;5043738;28;20040;-40
2023/10/30 09:16:26;;;;;;;9.52;3.08;;;;;;;1.41;100.00;98829.34;5046030;28;20067;-40
2023/10/30 09:18:53;;;;;;;4.43;2.20;;;;;;;1.36;100.00;98815.72;5044604;28;20174;-40
2023/10/30 09:21:20;;;;;;;7.15;3.13;;;;;;;1.27;100.00;98811.56;5046684;28;20517;-41
2023/10/30 09:23:46;;;;;;;7.57;3.95;;;;;;;1.37;100.00;98803.78;5039338;28;20135;-40
2023/10/30 09:26:13;;;;;;;9.52;3.65;;;;;;;1.41;100.00;98774.72;5046830;28;20134;-40
2023/10/30 09:28:40;;;;;;;7.03;3.40;;;;;;;1.48;100.00;98769.50;5041683;28;20527;-41
2023/10/30 09:31:06;;;;;;;6.38;3.08;;;;;;;1.46;100.00;98776.38;5045067;28;20044;-39
2023/10/30 09:33:32;;;;;;;7.32;3.15;;;;;;;1.48;100.00;98756.69;5034111;28;20156;-39
2023/10/30 09:35:59;;;;;;;12.38;4.32;;;;;;;1.51;100.00;98700.31;5013731;28;20044;-40
2023/10/30 09:38:25;;;;;;;8.85;4.30;;;;;;;1.53;100.00;98696.00;5044699;28;20166;-40
2023/10/30 09:41:01;;;;;;;9.60;4.00;;;;;;;1.37;100.00;98681.72;5045499;28;20509;-43
2023/10/30 09:43:30;;;;;;;7.43;3.63;;;;;;;1.51;100.00;98692.63;5036929;28;20037;-40
2023/10/30 09:46:00;;;;;;;5.03;3.33;;;;;;;1.48;100.00;98668.75;5028903;28;20528;-39
2023/10/30 09:48:28;;;;;;;6.28;3.38;;;;;;;1.29;100.00;98622.09;5026570;28;20045;-40
2023/10/30 09:50:56;;;;;;;7.35;3.58;;;;;;;1.48;100.00;98636.31;5041354;28;20041;-39
2023/10/30 09:53:22;;;;;;;8.10;3.88;;;;;;;1.46;100.00;98611.63;5044894;28;20048;-40
2023/10/30 09:55:49;;;;;;;8.05;4.18;;;;;;;1.43;100.00;98620.19;5050740;28;20051;-40
2023/10/30 09:58:16;;;;;;;12.07;4.15;;;;;;;1.17;100.00;98573.63;5048965;28;20037;-40
2023/10/30 10:00:46;;;;;;;10.02;3.60;;;;;;;1.51;100.00;98608.13;5053569;28;20044;-39
2023/10/30 10:03:12;;;;;;;13.27;5.68;;;;;;;1.55;100.00;98558.53;5051188;28;20049;-41
2023/10/30 10:05:37;;;;;;;10.35;4.30;;;;;;;1.59;100.00;98598.59;5041845;28;20037;-40
2023/10/30 10:08:05;;;;;;;11.02;5.43;;;;;;;1.27;100.00;98581.16;5031271;28;20041;-40
2023/10/30 10:10:52;;;;;;;11.57;5.18;;;;;;;1.65;100.00;98639.47;5036075;28;20138;-41
2023/10/30 10:13:18;;;;;;;9.02;4.22;;;;;;;1.63;100.00;98618.16;5038233;28;20049;-39
2023/10/30 10:15:45;;;;;;;15.77;6.78;;;;;;;1.61;100.00;98616.50;5048807;28;20043;-44
2023/10/30 10:18:31;;;;;;;14.10;6.15;;;;;;;1.72;100.00;98632.56;5037891;28;20086;-40
2023/10/30 10:20:59;;;;;;;20.67;6.43;;;;;;;1.79;100.00;98634.13;5038367;28;20167;-39
2023/10/30 10:23:26;;;;;;;10.98;4.63;;;;;;;1.81;100.00;98647.78;5031040;28;20045;-40
2023/10/30 10:25:55;;;;;;;14.82;5.22;;;;;;;1.80;100.00;98646.06;5034607;28;20794;-41
2023/10/30 10:28:24;;;;;;;16.23;5.65;;;;;;;1.76;100.00;98623.94;5050092;28;20050;-38
2023/10/30 10:30:53;;;;;;;16.75;6.65;;;;;;;1.95;100.00;98643.25;5041814;28;20061;-40
2023/10/30 10:33:24;;;;;;;17.98;6.88;;;;;;;1.95;100.00;98634.72;5054507;28;20053;-40
2023/10/30 10:35:54;;;;;;;18.48;6.18;;;;;;;1.98;100.00;98639.81;5039439;28;20231;-40
2023/10/30 10:38:21;;;;;;;13.63;5.40;;;;;;;1.67;100.00;98571.13;5049590;28;20033;-39
2023/10/30 10:40:48;;;;;;;11.35;5.53;;;;;;;2.02;100.00;98613.25;5040526;28;20044;-39
2023/10/30 10:43:16;;;;;;;15.95;7.20;;;;;;;2.03;100.00;98595.28;5029416;28;20424;-39
2023/10/30 10:45:42;;;;;;;17.10;6.70;;;;;;;2.14;100.00;98618.19;5031658;28;20512;-40
2023/10/30 10:48:09;;;;;;;29.52;11.73;;;;;;;2.17;100.00;98615.53;5032539;28;20215;-39
2023/10/30 10:50:35;;;;;;;15.55;6.43;;;;;;;2.20;100.00;98602.66;5046687;28;20037;-39
2023/10/30 10:53:03;;;;;;;20.15;7.05;;;;;;;2.26;100.00;98584.59;5042439;28;20526;-41
2023/10/30 10:55:30;;;;;;;12.57;6.38;;;;;;;2.29;100.00;98578.59;5060310;28;20124;-40
2023/10/30 10:58:07;;;;;;;14.05;5.57;;;;;;;2.36;100.00;98587.84;5065231;28;20041;-41
2023/10/30 11:00:37;;;;;;;16.17;6.35;;;;;;;2.39;100.00;98572.41;5039972;28;20535;-40
2023/10/30 11:03:06;;;;;;;12.80;5.50;;;;;;;2.36;100.00;98568.16;5048708;28;20053;-38
2023/10/30 11:05:33;;;;;;;16.07;7.13;;;;;;;2.34;100.00;98546.84;5052046;28;20426;-40
2023/10/30 11:08:03;;;;;;;17.65;6.97;;;;;;;2.33;100.00;98549.44;5057963;28;20305;-40
2023/10/30 11:10:35;;;;;;;16.10;6.63;;;;;;;2.20;100.00;98471.09;5039435;28;20064;-40
2023/10/30 11:13:31;;;;;;;15.52;6.05;;;;;;;2.28;100.00;98497.41;5043866;28;20492;-39
2023/10/30 11:16:01;;;;;;;19.58;6.20;;;;;;;2.19;100.00;98460.00;5057576;28;20043;-40
2023/10/30 11:18:27;;;;;;;19.23;7.30;;;;;;;2.41;100.00;98516.78;5062370;28;20631;-44
2023/10/30 11:21:08;;;;;;;19.38;7.43;;;;;;;2.43;100.00;98495.38;5059961;28;20131;-41
2023/10/30 11:23:48;;;;;;;15.32;6.80;;;;;;;2.50;100.00;98481.53;5057865;28;20044;-39
2023/10/30 11:26:29;;;;;;;17.65;6.35;;;;;;;2.47;100.00;98471.34;5055669;28;20043;-41
2023/10/30 11:28:57;;;;;;;18.50;6.40;;;;;;;2.49;100.00;98476.44;5053397;28;20044;-40
2023/10/30 11:31:24;;;;;;;15.40;7.20;;;;;;;2.44;100.00;98460.31;5055382;28;20544;-41
2023/10/30 11:33:49;;;;;;;14.95;6.85;;;;;;;2.45;100.00;98457.72;5051927;28;20037;-41
2023/10/30 11:36:21;;;;;;;18.80;7.35;;;;;;;2.68;100.00;98495.69;5040724;28;20099;-39